sensor_id;sensor_type;location;lat;lon;timestamp;P1;durP1;ratioP1;P2;durP2;ratioP2
80508;SDS011;69838;52.602;13.434;2023-12-20T00:00:29;15.00;;;7.53;;
80508;SDS011;69838;52.602;13.434;2023-12-20T00:01:14;13.25;;;8.07;;
80508;SDS011;69838;52.602;13.434;2023-12-20T00:02:00;14.13;;;8.07;;
80508;SDS011;69838;52.602;13.434;2023-12-20T00:02:47;14.88;;;8.32;;
80508;SDS011;69838;52.602;13.434;2023-12-20T00:03:33;13.30;;;7.65;;
80508;SDS011;69838;52.602;13.434;2023-12-20T00:04:18;14.73;;;8.18;;
80508;SDS011;69838;52.602;13.434;2023-12-20T00:05:05;14.27;;;7.60;;
80508;SDS011;69838;52.602;13.434;2023-12-20T00:05:51;14.30;;;7.97;;
80508;SDS011;69838;52.602;13.434;2023-12-20T00:06:36;14.18;;;7.75;;
80508;SDS011;69838;52.602;13.434;2023-12-20T00:07:23;13.57;;;7.72;;
80508;SDS011;69838;52.602;13.434;2023-12-20T00:08:08;15.10;;;8.43;;
80508;SDS011;69838;52.602;13.434;2023-12-20T00:08:54;14.98;;;7.97;;
80508;SDS011;69838;52.602;13.434;2023-12-20T00:09:40;13.13;;;7.05;;
80508;SDS011;69838;52.602;13.434;2023-12-20T00:10:25;12.27;;;7.05;;
80508;SDS011;69838;52.602;13.434;2023-12-20T00:11:12;11.57;;;5.47;;
80508;SDS011;69838;52.602;13.434;2023-12-20T00:11:58;14.15;;;7.78;;
80508;SDS011;69838;52.602;13.434;2023-12-20T00:12:44;13.43;;;7.70;;
80508;SDS011;69838;52.602;13.434;2023-12-20T00:13:29;14.80;;;7.55;;
80508;SDS011;69838;52.602;13.434;2023-12-20T00:14:16;14.88;;;7.95;;
80508;SDS011;69838;52.602;13.434;2023-12-20T00:15:01;14.38;;;7.00;;
80508;SDS011;69838;52.602;13.434;2023-12-20T00:15:46;12.73;;;7.15;;
80508;SDS011;69838;52.602;13.434;2023-12-20T00:16:33;13.85;;;7.65;;
80508;SDS011;69838;52.602;13.434;2023-12-20T00:17:18;13.07;;;6.75;;
80508;SDS011;69838;52.602;13.434;2023-12-20T00:18:04;14.80;;;7.78;;
80508;SDS011;69838;52.602;13.434;2023-12-20T00:18:51;11.38;;;6.22;;
80508;SDS011;69838;52.602;13.434;2023-12-20T00:19:36;13.25;;;7.00;;
80508;SDS011;69838;52.602;13.434;2023-12-20T00:20:22;13.25;;;7.57;;
80508;SDS011;69838;52.602;13.434;2023-12-20T00:21:08;16.73;;;8.73;;
80508;SDS011;69838;52.602;13.434;2023-12-20T00:21:53;12.95;;;7.55;;
80508;SDS011;69838;52.602;13.434;2023-12-20T00:22:39;13.30;;;7.20;;
80508;SDS011;69838;52.602;13.434;2023-12-20T00:23:25;12.80;;;6.85;;
80508;SDS011;69838;52.602;13.434;2023-12-20T00:24:11;15.13;;;9.70;;
80508;SDS011;69838;52.602;13.434;2023-12-20T00:24:56;14.90;;;7.78;;
80508;SDS011;69838;52.602;13.434;2023-12-20T00:25:42;13.93;;;7.60;;
80508;SDS011;69838;52.602;13.434;2023-12-20T00:26:29;13.18;;;7.55;;
80508;SDS011;69838;52.602;13.434;2023-12-20T00:27:16;14.00;;;7.00;;
80508;SDS011;69838;52.602;13.434;2023-12-20T00:28:01;14.90;;;8.15;;
80508;SDS011;69838;52.602;13.434;2023-12-20T00:28:47;14.15;;;7.22;;
80508;SDS011;69838;52.602;13.434;2023-12-20T00:29:33;13.68;;;6.95;;
80508;SDS011;69838;52.602;13.434;2023-12-20T00:30:19;13.55;;;6.97;;
80508;SDS011;69838;52.602;13.434;2023-12-20T00:31:04;12.50;;;6.25;;
80508;SDS011;69838;52.602;13.434;2023-12-20T00:31:50;12.63;;;6.90;;
80508;SDS011;69838;52.602;13.434;2023-12-20T00:32:36;14.52;;;6.90;;
80508;SDS011;69838;52.602;13.434;2023-12-20T00:33:22;14.90;;;7.00;;
80508;SDS011;69838;52.602;13.434;2023-12-20T00:34:08;13.30;;;6.93;;
80508;SDS011;69838;52.602;13.434;2023-12-20T00:34:53;13.63;;;7.35;;
80508;SDS011;69838;52.602;13.434;2023-12-20T00:35:40;13.25;;;7.25;;
80508;SDS011;69838;52.602;13.434;2023-12-20T00:36:25;13.38;;;6.78;;
80508;SDS011;69838;52.602;13.434;2023-12-20T00:37:10;13.18;;;7.18;;
80508;SDS011;69838;52.602;13.434;2023-12-20T00:37:57;12.30;;;6.38;;
80508;SDS011;69838;52.602;13.434;2023-12-20T00:38:43;12.82;;;6.85;;
80508;SDS011;69838;52.602;13.434;2023-12-20T00:39:29;13.38;;;7.07;;
80508;SDS011;69838;52.602;13.434;2023-12-20T00:40:15;14.75;;;8.02;;
80508;SDS011;69838;52.602;13.434;2023-12-20T00:41:00;12.93;;;6.70;;
80508;SDS011;69838;52.602;13.434;2023-12-20T00:41:49;10.30;;;5.85;;
80508;SDS011;69838;52.602;13.434;2023-12-20T00:42:34;10.75;;;5.80;;
80508;SDS011;69838;52.602;13.434;2023-12-20T00:43:20;12.23;;;6.82;;
80508;SDS011;69838;52.602;13.434;2023-12-20T00:44:06;12.48;;;7.05;;
80508;SDS011;69838;52.602;13.434;2023-12-20T00:44:52;11.48;;;6.20;;
80508;SDS011;69838;52.602;13.434;2023-12-20T00:45:37;12.20;;;6.43;;
80508;SDS011;69838;52.602;13.434;2023-12-20T00:46:24;12.57;;;6.25;;
80508;SDS011;69838;52.602;13.434;2023-12-20T00:47:09;12.32;;;6.60;;
80508;SDS011;69838;52.602;13.434;2023-12-20T00:47:55;12.93;;;6.68;;
80508;SDS011;69838;52.602;13.434;2023-12-20T00:48:41;11.88;;;6.63;;
80508;SDS011;69838;52.602;13.434;2023-12-20T00:49:27;12.15;;;6.70;;
80508;SDS011;69838;52.602;13.434;2023-12-20T00:50:12;11.20;;;6.50;;
80508;SDS011;69838;52.602;13.434;2023-12-20T00:50:59;11.55;;;6.70;;
80508;SDS011;69838;52.602;13.434;2023-12-20T00:51:44;11.13;;;6.05;;
80508;SDS011;69838;52.602;13.434;2023-12-20T00:52:29;11.48;;;6.40;;
80508;SDS011;69838;52.602;13.434;2023-12-20T00:53:16;12.80;;;6.65;;
80508;SDS011;69838;52.602;13.434;2023-12-20T00:54:01;12.98;;;6.72;;
80508;SDS011;69838;52.602;13.434;2023-12-20T00:54:47;11.18;;;6.35;;
80508;SDS011;69838;52.602;13.434;2023-12-20T00:55:34;14.73;;;7.60;;
80508;SDS011;69838;52.602;13.434;2023-12-20T00:56:19;12.25;;;7.03;;
80508;SDS011;69838;52.602;13.434;2023-12-20T00:57:06;10.93;;;6.80;;
80508;SDS011;69838;52.602;13.434;2023-12-20T00:57:52;11.10;;;5.85;;
80508;SDS011;69838;52.602;13.434;2023-12-20T00:58:38;12.00;;;7.03;;
80508;SDS011;69838;52.602;13.434;2023-12-20T00:59:23;12.02;;;6.88;;
80508;SDS011;69838;52.602;13.434;2023-12-20T01:00:10;12.02;;;6.57;;
80508;SDS011;69838;52.602;13.434;2023-12-20T01:00:56;11.13;;;6.38;;
80508;SDS011;69838;52.602;13.434;2023-12-20T01:01:43;12.38;;;7.43;;
80508;SDS011;69838;52.602;13.434;2023-12-20T01:02:29;13.40;;;7.32;;
80508;SDS011;69838;52.602;13.434;2023-12-20T01:03:15;12.90;;;6.75;;
80508;SDS011;69838;52.602;13.434;2023-12-20T01:04:00;11.70;;;6.07;;
80508;SDS011;69838;52.602;13.434;2023-12-20T01:04:46;13.77;;;6.85;;
80508;SDS011;69838;52.602;13.434;2023-12-20T01:05:32;12.75;;;6.18;;
80508;SDS011;69838;52.602;13.434;2023-12-20T01:06:17;11.20;;;6.25;;
80508;SDS011;69838;52.602;13.434;2023-12-20T01:07:04;11.73;;;6.22;;
80508;SDS011;69838;52.602;13.434;2023-12-20T01:07:49;12.30;;;6.30;;
80508;SDS011;69838;52.602;13.434;2023-12-20T01:08:34;13.63;;;6.90;;
80508;SDS011;69838;52.602;13.434;2023-12-20T01:09:21;11.52;;;6.28;;
80508;SDS011;69838;52.602;13.434;2023-12-20T01:10:08;12.18;;;6.47;;
80508;SDS011;69838;52.602;13.434;2023-12-20T01:10:54;13.30;;;7.13;;
80508;SDS011;69838;52.602;13.434;2023-12-20T01:11:40;13.65;;;6.90;;
80508;SDS011;69838;52.602;13.434;2023-12-20T01:12:27;13.10;;;6.38;;
80508;SDS011;69838;52.602;13.434;2023-12-20T01:13:13;13.63;;;7.75;;
80508;SDS011;69838;52.602;13.434;2023-12-20T01:13:58;14.85;;;8.07;;
80508;SDS011;69838;52.602;13.434;2023-12-20T01:14:44;12.30;;;7.03;;
80508;SDS011;69838;52.602;13.434;2023-12-20T01:15:30;13.13;;;6.95;;
80508;SDS011;69838;52.602;13.434;2023-12-20T01:16:16;12.88;;;7.10;;
80508;SDS011;69838;52.602;13.434;2023-12-20T01:17:01;14.35;;;7.85;;
80508;SDS011;69838;52.602;13.434;2023-12-20T01:17:47;11.77;;;6.65;;
80508;SDS011;69838;52.602;13.434;2023-12-20T01:18:34;13.57;;;8.27;;
80508;SDS011;69838;52.602;13.434;2023-12-20T01:19:19;13.23;;;6.90;;
80508;SDS011;69838;52.602;13.434;2023-12-20T01:20:06;12.60;;;6.90;;
80508;SDS011;69838;52.602;13.434;2023-12-20T01:20:52;11.48;;;5.95;;
80508;SDS011;69838;52.602;13.434;2023-12-20T01:21:38;12.95;;;6.93;;
80508;SDS011;69838;52.602;13.434;2023-12-20T01:22:24;13.05;;;7.03;;
80508;SDS011;69838;52.602;13.434;2023-12-20T01:23:10;14.35;;;7.60;;
80508;SDS011;69838;52.602;13.434;2023-12-20T01:23:56;15.27;;;7.95;;
80508;SDS011;69838;52.602;13.434;2023-12-20T01:24:41;12.88;;;6.20;;
80508;SDS011;69838;52.602;13.434;2023-12-20T01:25:27;13.85;;;7.63;;
80508;SDS011;69838;52.602;13.434;2023-12-20T01:26:14;13.75;;;6.65;;
80508;SDS011;69838;52.602;13.434;2023-12-20T01:27:00;13.25;;;6.97;;
80508;SDS011;69838;52.602;13.434;2023-12-20T01:27:46;13.57;;;7.07;;
80508;SDS011;69838;52.602;13.434;2023-12-20T01:28:33;13.48;;;7.18;;
80508;SDS011;69838;52.602;13.434;2023-12-20T01:29:18;11.85;;;6.68;;
80508;SDS011;69838;52.602;13.434;2023-12-20T01:30:04;11.82;;;7.30;;
80508;SDS011;69838;52.602;13.434;2023-12-20T01:30:51;12.25;;;7.03;;
80508;SDS011;69838;52.602;13.434;2023-12-20T01:31:37;11.00;;;5.85;;
80508;SDS011;69838;52.602;13.434;2023-12-20T01:32:23;13.95;;;6.82;;
80508;SDS011;69838;52.602;13.434;2023-12-20T01:33:09;13.75;;;6.78;;
80508;SDS011;69838;52.602;13.434;2023-12-20T01:33:54;12.82;;;6.90;;
80508;SDS011;69838;52.602;13.434;2023-12-20T01:34:40;13.02;;;7.40;;
80508;SDS011;69838;52.602;13.434;2023-12-20T01:35:26;13.15;;;6.43;;
80508;SDS011;69838;52.602;13.434;2023-12-20T01:36:12;12.73;;;7.00;;
80508;SDS011;69838;52.602;13.434;2023-12-20T01:36:58;12.43;;;7.18;;
80508;SDS011;69838;52.602;13.434;2023-12-20T01:37:45;13.43;;;7.07;;
80508;SDS011;69838;52.602;13.434;2023-12-20T01:38:30;12.18;;;6.50;;
80508;SDS011;69838;52.602;13.434;2023-12-20T01:39:17;11.30;;;6.43;;
80508;SDS011;69838;52.602;13.434;2023-12-20T01:40:03;12.40;;;6.85;;
80508;SDS011;69838;52.602;13.434;2023-12-20T01:40:49;11.45;;;6.40;;
80508;SDS011;69838;52.602;13.434;2023-12-20T01:41:36;12.32;;;6.40;;
80508;SDS011;69838;52.602;13.434;2023-12-20T01:42:21;13.60;;;7.07;;
80508;SDS011;69838;52.602;13.434;2023-12-20T01:43:09;11.52;;;6.38;;
80508;SDS011;69838;52.602;13.434;2023-12-20T01:43:57;13.38;;;7.47;;
80508;SDS011;69838;52.602;13.434;2023-12-20T01:44:42;11.32;;;6.97;;
80508;SDS011;69838;52.602;13.434;2023-12-20T01:45:29;11.40;;;6.20;;
80508;SDS011;69838;52.602;13.434;2023-12-20T01:46:14;12.23;;;6.25;;
80508;SDS011;69838;52.602;13.434;2023-12-20T01:47:00;12.60;;;6.30;;
80508;SDS011;69838;52.602;13.434;2023-12-20T01:47:47;13.30;;;6.63;;
80508;SDS011;69838;52.602;13.434;2023-12-20T01:48:33;12.82;;;7.45;;
80508;SDS011;69838;52.602;13.434;2023-12-20T01:49:18;12.00;;;6.35;;
80508;SDS011;69838;52.602;13.434;2023-12-20T01:50:05;12.63;;;6.53;;
80508;SDS011;69838;52.602;13.434;2023-12-20T01:50:53;10.60;;;5.70;;
80508;SDS011;69838;52.602;13.434;2023-12-20T01:51:40;11.32;;;6.00;;
80508;SDS011;69838;52.602;13.434;2023-12-20T01:52:25;10.13;;;5.32;;
80508;SDS011;69838;52.602;13.434;2023-12-20T01:53:12;11.45;;;5.22;;
80508;SDS011;69838;52.602;13.434;2023-12-20T01:54:00;10.48;;;5.82;;
80508;SDS011;69838;52.602;13.434;2023-12-20T01:54:45;10.45;;;5.97;;
80508;SDS011;69838;52.602;13.434;2023-12-20T01:55:33;10.02;;;5.82;;
80508;SDS011;69838;52.602;13.434;2023-12-20T01:56:21;10.15;;;5.57;;
80508;SDS011;69838;52.602;13.434;2023-12-20T01:57:06;10.60;;;5.85;;
80508;SDS011;69838;52.602;13.434;2023-12-20T01:57:52;11.15;;;5.90;;
80508;SDS011;69838;52.602;13.434;2023-12-20T01:58:43;10.40;;;5.78;;
80508;SDS011;69838;52.602;13.434;2023-12-20T01:59:30;10.90;;;5.80;;
80508;SDS011;69838;52.602;13.434;2023-12-20T02:00:15;10.70;;;5.10;;
80508;SDS011;69838;52.602;13.434;2023-12-20T02:01:06;10.93;;;6.38;;
80508;SDS011;69838;52.602;13.434;2023-12-20T02:01:51;11.25;;;6.25;;
80508;SDS011;69838;52.602;13.434;2023-12-20T02:02:37;10.10;;;5.88;;
80508;SDS011;69838;52.602;13.434;2023-12-20T02:03:25;10.57;;;6.28;;
80508;SDS011;69838;52.602;13.434;2023-12-20T02:04:11;10.50;;;5.45;;
80508;SDS011;69838;52.602;13.434;2023-12-20T02:04:56;11.00;;;5.75;;
80508;SDS011;69838;52.602;13.434;2023-12-20T02:05:43;10.82;;;5.63;;
80508;SDS011;69838;52.602;13.434;2023-12-20T02:06:29;10.52;;;5.55;;
80508;SDS011;69838;52.602;13.434;2023-12-20T02:07:17;11.27;;;5.63;;
80508;SDS011;69838;52.602;13.434;2023-12-20T02:08:03;11.57;;;5.82;;
80508;SDS011;69838;52.602;13.434;2023-12-20T02:08:50;11.23;;;5.68;;
80508;SDS011;69838;52.602;13.434;2023-12-20T02:09:37;11.38;;;5.53;;
80508;SDS011;69838;52.602;13.434;2023-12-20T02:10:23;11.50;;;6.10;;
80508;SDS011;69838;52.602;13.434;2023-12-20T02:11:09;10.63;;;5.82;;
80508;SDS011;69838;52.602;13.434;2023-12-20T02:11:56;11.15;;;5.47;;
80508;SDS011;69838;52.602;13.434;2023-12-20T02:12:41;11.20;;;5.68;;
80508;SDS011;69838;52.602;13.434;2023-12-20T02:13:27;10.95;;;5.57;;
80508;SDS011;69838;52.602;13.434;2023-12-20T02:14:14;10.57;;;5.43;;
80508;SDS011;69838;52.602;13.434;2023-12-20T02:15:00;10.60;;;5.70;;
80508;SDS011;69838;52.602;13.434;2023-12-20T02:15:45;10.88;;;5.60;;
80508;SDS011;69838;52.602;13.434;2023-12-20T02:16:32;10.68;;;6.03;;
80508;SDS011;69838;52.602;13.434;2023-12-20T02:17:17;10.07;;;5.35;;
80508;SDS011;69838;52.602;13.434;2023-12-20T02:18:04;9.90;;;4.78;;
80508;SDS011;69838;52.602;13.434;2023-12-20T02:18:50;11.13;;;5.65;;
80508;SDS011;69838;52.602;13.434;2023-12-20T02:19:36;10.90;;;5.68;;
80508;SDS011;69838;52.602;13.434;2023-12-20T02:20:21;10.32;;;6.03;;
80508;SDS011;69838;52.602;13.434;2023-12-20T02:21:08;11.85;;;4.97;;
80508;SDS011;69838;52.602;13.434;2023-12-20T02:22:05;10.02;;;4.63;;
80508;SDS011;69838;52.602;13.434;2023-12-20T02:22:52;9.27;;;4.70;;
80508;SDS011;69838;52.602;13.434;2023-12-20T02:23:38;9.15;;;4.85;;
80508;SDS011;69838;52.602;13.434;2023-12-20T02:24:23;8.98;;;4.88;;
80508;SDS011;69838;52.602;13.434;2023-12-20T02:25:09;9.13;;;4.15;;
80508;SDS011;69838;52.602;13.434;2023-12-20T02:25:55;8.38;;;4.65;;
80508;SDS011;69838;52.602;13.434;2023-12-20T02:26:41;9.13;;;4.25;;
80508;SDS011;69838;52.602;13.434;2023-12-20T02:27:26;9.10;;;4.60;;
80508;SDS011;69838;52.602;13.434;2023-12-20T02:28:14;7.38;;;4.40;;
80508;SDS011;69838;52.602;13.434;2023-12-20T02:29:01;8.25;;;3.85;;
80508;SDS011;69838;52.602;13.434;2023-12-20T02:29:47;8.75;;;3.72;;
80508;SDS011;69838;52.602;13.434;2023-12-20T02:30:34;7.40;;;3.72;;
80508;SDS011;69838;52.602;13.434;2023-12-20T02:31:20;8.02;;;3.85;;
80508;SDS011;69838;52.602;13.434;2023-12-20T02:32:06;7.93;;;4.35;;
80508;SDS011;69838;52.602;13.434;2023-12-20T02:32:52;9.07;;;3.45;;
80508;SDS011;69838;52.602;13.434;2023-12-20T02:33:38;8.02;;;3.65;;
80508;SDS011;69838;52.602;13.434;2023-12-20T02:34:27;5.82;;;3.22;;
80508;SDS011;69838;52.602;13.434;2023-12-20T02:35:12;6.22;;;3.65;;
80508;SDS011;69838;52.602;13.434;2023-12-20T02:35:57;7.50;;;3.53;;
80508;SDS011;69838;52.602;13.434;2023-12-20T02:36:44;6.75;;;3.85;;
80508;SDS011;69838;52.602;13.434;2023-12-20T02:37:31;6.75;;;3.45;;
80508;SDS011;69838;52.602;13.434;2023-12-20T02:38:17;6.65;;;3.05;;
80508;SDS011;69838;52.602;13.434;2023-12-20T02:39:04;6.03;;;3.25;;
80508;SDS011;69838;52.602;13.434;2023-12-20T02:39:49;6.57;;;2.85;;
80508;SDS011;69838;52.602;13.434;2023-12-20T02:40:35;7.53;;;3.28;;
80508;SDS011;69838;52.602;13.434;2023-12-20T02:41:21;5.78;;;4.05;;
80508;SDS011;69838;52.602;13.434;2023-12-20T02:42:07;5.78;;;3.10;;
80508;SDS011;69838;52.602;13.434;2023-12-20T02:42:52;6.18;;;3.25;;
80508;SDS011;69838;52.602;13.434;2023-12-20T02:43:38;6.35;;;3.13;;
80508;SDS011;69838;52.602;13.434;2023-12-20T02:44:24;7.47;;;2.88;;
80508;SDS011;69838;52.602;13.434;2023-12-20T02:45:09;7.85;;;3.15;;
80508;SDS011;69838;52.602;13.434;2023-12-20T02:45:56;5.70;;;2.88;;
80508;SDS011;69838;52.602;13.434;2023-12-20T02:46:41;5.90;;;2.65;;
80508;SDS011;69838;52.602;13.434;2023-12-20T02:47:26;7.45;;;3.10;;
80508;SDS011;69838;52.602;13.434;2023-12-20T02:48:14;7.05;;;3.58;;
80508;SDS011;69838;52.602;13.434;2023-12-20T02:49:00;7.03;;;3.33;;
80508;SDS011;69838;52.602;13.434;2023-12-20T02:49:45;7.25;;;2.60;;
80508;SDS011;69838;52.602;13.434;2023-12-20T02:50:31;8.02;;;2.83;;
80508;SDS011;69838;52.602;13.434;2023-12-20T02:51:17;8.15;;;3.10;;
80508;SDS011;69838;52.602;13.434;2023-12-20T02:52:03;5.28;;;2.70;;
80508;SDS011;69838;52.602;13.434;2023-12-20T02:52:51;6.00;;;2.50;;
80508;SDS011;69838;52.602;13.434;2023-12-20T02:53:36;7.43;;;2.60;;
80508;SDS011;69838;52.602;13.434;2023-12-20T02:54:22;7.07;;;2.72;;
80508;SDS011;69838;52.602;13.434;2023-12-20T02:55:08;5.93;;;2.88;;
80508;SDS011;69838;52.602;13.434;2023-12-20T02:55:53;5.57;;;2.90;;
80508;SDS011;69838;52.602;13.434;2023-12-20T02:56:40;5.70;;;2.45;;
80508;SDS011;69838;52.602;13.434;2023-12-20T02:57:25;7.65;;;2.75;;
80508;SDS011;69838;52.602;13.434;2023-12-20T02:58:11;5.15;;;2.92;;
80508;SDS011;69838;52.602;13.434;2023-12-20T02:58:57;6.95;;;2.40;;
80508;SDS011;69838;52.602;13.434;2023-12-20T02:59:42;5.68;;;3.00;;
80508;SDS011;69838;52.602;13.434;2023-12-20T03:00:29;8.75;;;3.25;;
80508;SDS011;69838;52.602;13.434;2023-12-20T03:01:14;6.68;;;3.05;;
80508;SDS011;69838;52.602;13.434;2023-12-20T03:02:00;5.57;;;2.90;;
80508;SDS011;69838;52.602;13.434;2023-12-20T03:02:46;7.88;;;3.28;;
80508;SDS011;69838;52.602;13.434;2023-12-20T03:03:31;7.53;;;3.20;;
80508;SDS011;69838;52.602;13.434;2023-12-20T03:04:17;7.53;;;3.05;;
80508;SDS011;69838;52.602;13.434;2023-12-20T03:05:03;4.70;;;2.53;;
80508;SDS011;69838;52.602;13.434;2023-12-20T03:05:49;6.38;;;2.55;;
80508;SDS011;69838;52.602;13.434;2023-12-20T03:06:36;6.45;;;2.42;;
80508;SDS011;69838;52.602;13.434;2023-12-20T03:07:21;7.90;;;2.55;;
80508;SDS011;69838;52.602;13.434;2023-12-20T03:08:08;6.63;;;3.00;;
80508;SDS011;69838;52.602;13.434;2023-12-20T03:08:55;7.97;;;3.20;;
80508;SDS011;69838;52.602;13.434;2023-12-20T03:09:41;6.70;;;2.97;;
80508;SDS011;69838;52.602;13.434;2023-12-20T03:10:26;5.65;;;2.50;;
80508;SDS011;69838;52.602;13.434;2023-12-20T03:11:12;6.50;;;2.25;;
80508;SDS011;69838;52.602;13.434;2023-12-20T03:11:58;6.80;;;2.65;;
80508;SDS011;69838;52.602;13.434;2023-12-20T03:12:43;7.53;;;2.63;;
80508;SDS011;69838;52.602;13.434;2023-12-20T03:13:30;6.20;;;3.00;;
80508;SDS011;69838;52.602;13.434;2023-12-20T03:14:15;5.90;;;2.85;;
80508;SDS011;69838;52.602;13.434;2023-12-20T03:15:01;5.80;;;2.33;;
80508;SDS011;69838;52.602;13.434;2023-12-20T03:15:47;6.07;;;3.88;;
80508;SDS011;69838;52.602;13.434;2023-12-20T03:16:32;5.15;;;2.22;;
80508;SDS011;69838;52.602;13.434;2023-12-20T03:17:18;8.02;;;2.70;;
80508;SDS011;69838;52.602;13.434;2023-12-20T03:18:05;6.28;;;2.63;;
80508;SDS011;69838;52.602;13.434;2023-12-20T03:18:51;5.60;;;2.42;;
80508;SDS011;69838;52.602;13.434;2023-12-20T03:19:36;6.90;;;2.53;;
80508;SDS011;69838;52.602;13.434;2023-12-20T03:20:23;8.05;;;2.67;;
80508;SDS011;69838;52.602;13.434;2023-12-20T03:21:08;5.88;;;2.65;;
80508;SDS011;69838;52.602;13.434;2023-12-20T03:21:54;5.28;;;2.78;;
80508;SDS011;69838;52.602;13.434;2023-12-20T03:22:40;7.63;;;2.28;;
80508;SDS011;69838;52.602;13.434;2023-12-20T03:23:27;5.95;;;2.20;;
80508;SDS011;69838;52.602;13.434;2023-12-20T03:24:12;5.38;;;2.15;;
80508;SDS011;69838;52.602;13.434;2023-12-20T03:24:59;6.45;;;2.78;;
80508;SDS011;69838;52.602;13.434;2023-12-20T03:25:44;6.22;;;2.90;;
80508;SDS011;69838;52.602;13.434;2023-12-20T03:26:29;6.57;;;2.30;;
80508;SDS011;69838;52.602;13.434;2023-12-20T03:27:16;6.53;;;3.03;;
80508;SDS011;69838;52.602;13.434;2023-12-20T03:28:01;6.07;;;2.42;;
80508;SDS011;69838;52.602;13.434;2023-12-20T03:28:47;5.95;;;2.92;;
80508;SDS011;69838;52.602;13.434;2023-12-20T03:29:33;7.20;;;2.33;;
80508;SDS011;69838;52.602;13.434;2023-12-20T03:30:19;7.03;;;2.38;;
80508;SDS011;69838;52.602;13.434;2023-12-20T03:31:05;7.97;;;2.42;;
80508;SDS011;69838;52.602;13.434;2023-12-20T03:31:51;11.07;;;3.03;;
80508;SDS011;69838;52.602;13.434;2023-12-20T03:32:36;7.50;;;2.47;;
80508;SDS011;69838;52.602;13.434;2023-12-20T03:33:23;5.75;;;2.92;;
80508;SDS011;69838;52.602;13.434;2023-12-20T03:34:08;7.90;;;2.78;;
80508;SDS011;69838;52.602;13.434;2023-12-20T03:34:54;6.78;;;2.25;;
80508;SDS011;69838;52.602;13.434;2023-12-20T03:35:40;10.48;;;2.50;;
80508;SDS011;69838;52.602;13.434;2023-12-20T03:36:26;8.32;;;2.40;;
80508;SDS011;69838;52.602;13.434;2023-12-20T03:37:12;5.35;;;1.92;;
80508;SDS011;69838;52.602;13.434;2023-12-20T03:37:58;8.98;;;2.17;;
80508;SDS011;69838;52.602;13.434;2023-12-20T03:38:46;7.35;;;2.47;;
80508;SDS011;69838;52.602;13.434;2023-12-20T03:39:32;6.90;;;2.65;;
80508;SDS011;69838;52.602;13.434;2023-12-20T03:40:18;6.47;;;3.42;;
80508;SDS011;69838;52.602;13.434;2023-12-20T03:41:04;9.55;;;3.55;;
80508;SDS011;69838;52.602;13.434;2023-12-20T03:41:49;7.93;;;2.92;;
80508;SDS011;69838;52.602;13.434;2023-12-20T03:42:34;9.63;;;2.47;;
80508;SDS011;69838;52.602;13.434;2023-12-20T03:43:21;6.65;;;2.20;;
80508;SDS011;69838;52.602;13.434;2023-12-20T03:44:06;9.68;;;2.40;;
80508;SDS011;69838;52.602;13.434;2023-12-20T03:44:51;11.07;;;2.67;;
80508;SDS011;69838;52.602;13.434;2023-12-20T03:45:38;8.13;;;3.60;;
80508;SDS011;69838;52.602;13.434;2023-12-20T03:46:23;7.75;;;2.72;;
80508;SDS011;69838;52.602;13.434;2023-12-20T03:47:10;8.32;;;2.90;;
80508;SDS011;69838;52.602;13.434;2023-12-20T03:47:55;10.98;;;3.00;;
80508;SDS011;69838;52.602;13.434;2023-12-20T03:48:41;7.20;;;3.22;;
80508;SDS011;69838;52.602;13.434;2023-12-20T03:49:27;9.77;;;2.38;;
80508;SDS011;69838;52.602;13.434;2023-12-20T03:50:13;8.82;;;2.33;;
80508;SDS011;69838;52.602;13.434;2023-12-20T03:50:58;9.63;;;2.47;;
80508;SDS011;69838;52.602;13.434;2023-12-20T03:51:45;7.60;;;2.80;;
80508;SDS011;69838;52.602;13.434;2023-12-20T03:52:30;5.43;;;2.53;;
80508;SDS011;69838;52.602;13.434;2023-12-20T03:53:15;8.10;;;2.85;;
80508;SDS011;69838;52.602;13.434;2023-12-20T03:54:03;10.52;;;2.75;;
80508;SDS011;69838;52.602;13.434;2023-12-20T03:54:49;7.07;;;2.15;;
80508;SDS011;69838;52.602;13.434;2023-12-20T03:55:34;9.80;;;3.30;;
80508;SDS011;69838;52.602;13.434;2023-12-20T03:56:20;7.43;;;2.67;;
80508;SDS011;69838;52.602;13.434;2023-12-20T03:57:06;9.82;;;3.05;;
80508;SDS011;69838;52.602;13.434;2023-12-20T03:57:51;11.02;;;2.42;;
80508;SDS011;69838;52.602;13.434;2023-12-20T03:58:37;7.22;;;2.58;;
80508;SDS011;69838;52.602;13.434;2023-12-20T03:59:23;8.77;;;2.25;;
80508;SDS011;69838;52.602;13.434;2023-12-20T04:00:09;5.88;;;2.08;;
80508;SDS011;69838;52.602;13.434;2023-12-20T04:00:57;10.18;;;2.40;;
80508;SDS011;69838;52.602;13.434;2023-12-20T04:01:43;7.40;;;2.30;;
80508;SDS011;69838;52.602;13.434;2023-12-20T04:02:29;9.68;;;3.85;;
80508;SDS011;69838;52.602;13.434;2023-12-20T04:03:15;6.82;;;2.20;;
80508;SDS011;69838;52.602;13.434;2023-12-20T04:04:01;4.97;;;2.03;;
80508;SDS011;69838;52.602;13.434;2023-12-20T04:04:46;11.88;;;3.13;;
80508;SDS011;69838;52.602;13.434;2023-12-20T04:05:32;9.07;;;3.03;;
80508;SDS011;69838;52.602;13.434;2023-12-20T04:06:18;9.55;;;2.72;;
80508;SDS011;69838;52.602;13.434;2023-12-20T04:07:04;8.18;;;2.33;;
80508;SDS011;69838;52.602;13.434;2023-12-20T04:07:50;8.98;;;2.80;;
80508;SDS011;69838;52.602;13.434;2023-12-20T04:08:35;8.65;;;2.58;;
80508;SDS011;69838;52.602;13.434;2023-12-20T04:09:22;7.50;;;2.33;;
80508;SDS011;69838;52.602;13.434;2023-12-20T04:10:08;5.97;;;2.53;;
80508;SDS011;69838;52.602;13.434;2023-12-20T04:10:54;7.70;;;2.63;;
80508;SDS011;69838;52.602;13.434;2023-12-20T04:11:39;6.97;;;2.78;;
80508;SDS011;69838;52.602;13.434;2023-12-20T04:12:26;9.15;;;2.92;;
80508;SDS011;69838;52.602;13.434;2023-12-20T04:13:12;8.75;;;2.75;;
80508;SDS011;69838;52.602;13.434;2023-12-20T04:13:57;10.75;;;2.80;;
80508;SDS011;69838;52.602;13.434;2023-12-20T04:14:43;5.90;;;2.30;;
80508;SDS011;69838;52.602;13.434;2023-12-20T04:15:29;9.45;;;2.42;;
80508;SDS011;69838;52.602;13.434;2023-12-20T04:16:14;7.07;;;2.00;;
80508;SDS011;69838;52.602;13.434;2023-12-20T04:17:01;9.70;;;2.67;;
80508;SDS011;69838;52.602;13.434;2023-12-20T04:17:46;10.35;;;2.85;;
80508;SDS011;69838;52.602;13.434;2023-12-20T04:18:31;8.25;;;2.83;;
80508;SDS011;69838;52.602;13.434;2023-12-20T04:19:18;5.40;;;2.35;;
80508;SDS011;69838;52.602;13.434;2023-12-20T04:20:04;8.25;;;2.60;;
80508;SDS011;69838;52.602;13.434;2023-12-20T04:20:50;9.35;;;3.15;;
80508;SDS011;69838;52.602;13.434;2023-12-20T04:21:36;9.18;;;3.50;;
80508;SDS011;69838;52.602;13.434;2023-12-20T04:22:22;9.82;;;3.22;;
80508;SDS011;69838;52.602;13.434;2023-12-20T04:23:07;10.73;;;3.17;;
80508;SDS011;69838;52.602;13.434;2023-12-20T04:23:54;6.82;;;2.30;;
80508;SDS011;69838;52.602;13.434;2023-12-20T04:24:40;9.57;;;2.92;;
80508;SDS011;69838;52.602;13.434;2023-12-20T04:25:27;10.20;;;3.78;;
80508;SDS011;69838;52.602;13.434;2023-12-20T04:26:13;10.00;;;2.97;;
80508;SDS011;69838;52.602;13.434;2023-12-20T04:26:59;9.40;;;2.75;;
80508;SDS011;69838;52.602;13.434;2023-12-20T04:27:44;6.85;;;2.08;;
80508;SDS011;69838;52.602;13.434;2023-12-20T04:28:30;9.45;;;2.88;;
80508;SDS011;69838;52.602;13.434;2023-12-20T04:29:16;10.85;;;2.33;;
80508;SDS011;69838;52.602;13.434;2023-12-20T04:30:02;8.85;;;3.78;;
80508;SDS011;69838;52.602;13.434;2023-12-20T04:30:49;11.93;;;2.65;;
80508;SDS011;69838;52.602;13.434;2023-12-20T04:31:34;8.10;;;3.25;;